createdAt,value
2019-06-26T00:00:32.462Z,14.30
2019-06-26T00:03:03.074Z,11.55
2019-06-26T00:05:34.683Z,10.05
2019-06-26T00:08:05.970Z,12.20
2019-06-26T00:10:36.817Z,11.15
2019-06-26T00:13:08.097Z,11.97
2019-06-26T00:15:38.922Z,15.78
2019-06-26T00:18:09.346Z,13.32
2019-06-26T00:20:39.839Z,10.53
2019-06-26T00:23:10.533Z,10.88
2019-06-26T00:25:41.083Z,12.28
2019-06-26T00:28:12.047Z,10.82
2019-06-26T00:30:43.937Z,8.85
2019-06-26T00:33:14.922Z,15.70
2019-06-26T00:35:45.980Z,8.23
2019-06-26T00:38:16.942Z,11.12
2019-06-26T00:40:47.422Z,13.83
2019-06-26T00:43:18.737Z,13.60
2019-06-26T00:45:49.201Z,11.85
2019-06-26T00:48:19.948Z,11.43
2019-06-26T00:50:51.658Z,10.88
2019-06-26T00:53:22.641Z,9.95
2019-06-26T00:55:55.267Z,10.30
2019-06-26T00:58:26.545Z,8.85
2019-06-26T01:00:57.246Z,12.30
2019-06-26T01:03:28.151Z,8.43
2019-06-26T01:05:59.371Z,9.73
2019-06-26T01:08:30.689Z,10.78
2019-06-26T01:11:01.223Z,9.03
2019-06-26T01:13:32.018Z,12.28
2019-06-26T01:16:03.169Z,9.08
2019-06-26T01:18:33.975Z,8.68
2019-06-26T01:21:05.338Z,9.43
2019-06-26T01:23:38.589Z,7.87
2019-06-26T01:26:09.673Z,8.15
2019-06-26T01:28:41.599Z,7.37
2019-06-26T01:31:11.593Z,6.30
2019-06-26T01:33:42.517Z,6.60
2019-06-26T01:36:14.177Z,9.60
2019-06-26T01:38:44.451Z,7.08
2019-06-26T01:41:15.049Z,7.28
2019-06-26T01:43:45.189Z,6.50
2019-06-26T01:46:15.845Z,7.67
2019-06-26T01:48:47.007Z,5.90
2019-06-26T01:51:18.184Z,8.50
2019-06-26T01:53:48.783Z,7.50
2019-06-26T01:56:20.078Z,5.67
2019-06-26T01:58:51.140Z,5.47
2019-06-26T02:01:22.785Z,4.17
2019-06-26T02:03:53.903Z,4.87
2019-06-26T02:06:24.589Z,7.08
2019-06-26T02:08:55.036Z,8.80
2019-06-26T02:11:26.244Z,6.10
2019-06-26T02:13:56.498Z,2.85
2019-06-26T02:16:27.354Z,3.90
2019-06-26T02:18:59.398Z,4.60
2019-06-26T02:21:30.224Z,6.08
2019-06-26T02:24:01.453Z,3.95
2019-06-26T02:26:32.714Z,3.05
2019-06-26T02:29:05.217Z,5.35
2019-06-26T02:31:36.545Z,9.28
2019-06-26T02:34:07.642Z,2.42
2019-06-26T02:36:38.743Z,4.50
2019-06-26T02:39:10.088Z,6.55
2019-06-26T02:41:40.299Z,4.67
2019-06-26T02:44:10.949Z,2.22
2019-06-26T02:46:41.772Z,2.40
2019-06-26T02:49:12.892Z,5.95
2019-06-26T02:51:43.490Z,2.62
2019-06-26T02:54:14.310Z,2.35
2019-06-26T02:56:44.764Z,4.92
2019-06-26T02:59:15.410Z,2.15
2019-06-26T03:01:46.447Z,4.62
2019-06-26T03:04:16.715Z,5.58
2019-06-26T03:06:47.465Z,2.00
2019-06-26T03:09:17.983Z,4.22
2019-06-26T03:11:48.995Z,2.72
2019-06-26T03:14:19.987Z,2.98
2019-06-26T03:16:50.940Z,3.87
2019-06-26T03:19:24.221Z,3.55
2019-06-26T03:21:55.280Z,4.60
2019-06-26T03:24:26.298Z,3.00
2019-06-26T03:26:57.543Z,3.30
2019-06-26T03:29:28.860Z,2.85
2019-06-26T03:32:00.362Z,2.92
2019-06-26T03:34:31.264Z,3.02
2019-06-26T03:37:02.108Z,2.50
2019-06-26T03:39:33.208Z,3.50
2019-06-26T03:42:04.167Z,3.52
2019-06-26T03:44:34.987Z,3.50
2019-06-26T03:47:05.952Z,2.65
2019-06-26T03:49:36.687Z,3.10
2019-06-26T03:52:07.405Z,2.05
2019-06-26T03:54:39.051Z,2.27
2019-06-26T03:57:10.334Z,1.77
2019-06-26T03:59:40.674Z,4.75
2019-06-26T04:02:11.932Z,3.60
2019-06-26T04:04:42.707Z,2.65
2019-06-26T04:07:13.587Z,1.77
2019-06-26T04:09:46.716Z,3.67
2019-06-26T04:12:17.633Z,1.77
2019-06-26T04:14:48.354Z,2.45
2019-06-26T04:17:19.079Z,3.60
2019-06-26T04:19:49.606Z,1.87
2019-06-26T04:22:20.437Z,2.02
2019-06-26T04:24:51.569Z,1.37
2019-06-26T04:27:22.756Z,3.60
2019-06-26T04:29:53.372Z,2.77
2019-06-26T04:32:25.121Z,5.72
2019-06-26T04:34:56.082Z,2.20
2019-06-26T04:37:26.875Z,2.98
2019-06-26T04:39:57.984Z,2.65
2019-06-26T04:42:30.075Z,3.55
2019-06-26T04:45:00.856Z,1.98
2019-06-26T04:47:32.038Z,4.33
2019-06-26T04:50:03.782Z,2.50
2019-06-26T04:52:34.778Z,1.22
2019-06-26T04:55:08.633Z,3.47
2019-06-26T04:57:40.247Z,4.65
2019-06-26T05:00:10.978Z,3.92
2019-06-26T05:02:41.556Z,4.72
2019-06-26T05:05:13.069Z,3.90
2019-06-26T05:07:44.029Z,4.35
2019-06-26T05:10:15.637Z,2.27
2019-06-26T05:12:46.632Z,3.25
2019-06-26T05:15:17.654Z,2.65
2019-06-26T05:17:48.536Z,5.67
2019-06-26T05:20:20.199Z,4.83
2019-06-26T05:22:51.291Z,5.35
2019-06-26T05:25:21.949Z,4.30
2019-06-26T05:27:53.014Z,5.65
2019-06-26T05:30:24.090Z,3.55
2019-06-26T05:32:55.175Z,8.85
2019-06-26T05:35:27.141Z,7.08
2019-06-26T05:37:58.214Z,4.30
2019-06-26T05:40:29.154Z,4.03
2019-06-26T05:43:00.358Z,4.50
2019-06-26T05:45:31.380Z,2.83
2019-06-26T05:48:02.501Z,4.17
2019-06-26T05:50:33.617Z,3.42
2019-06-26T05:53:04.668Z,6.50
2019-06-26T05:55:35.685Z,2.83
2019-06-26T05:58:07.054Z,4.65
2019-06-26T06:00:38.135Z,2.95
2019-06-26T06:03:09.300Z,7.83
2019-06-26T06:05:40.552Z,2.77
2019-06-26T06:08:11.252Z,4.58
2019-06-26T06:10:42.967Z,2.12
2019-06-26T06:13:14.383Z,2.45
2019-06-26T06:15:45.527Z,3.98
2019-06-26T06:18:17.177Z,2.60
2019-06-26T06:20:48.098Z,3.25
2019-06-26T06:23:19.044Z,5.47
2019-06-26T06:25:49.861Z,3.42
2019-06-26T06:28:23.564Z,1.75
2019-06-26T06:30:54.353Z,2.47
2019-06-26T06:33:25.357Z,2.60
2019-06-26T06:35:56.692Z,3.10
2019-06-26T06:38:27.789Z,3.67
2019-06-26T06:40:58.519Z,4.42
2019-06-26T06:43:29.555Z,4.40
2019-06-26T06:46:00.681Z,3.37
2019-06-26T06:48:31.888Z,1.52
2019-06-26T06:51:03.104Z,8.33
2019-06-26T06:53:33.797Z,5.53
2019-06-26T06:56:04.509Z,4.83
2019-06-26T06:58:35.251Z,2.92
2019-06-26T07:01:05.975Z,3.55
2019-06-26T07:03:36.715Z,3.37
2019-06-26T07:06:07.068Z,2.70
2019-06-26T07:08:38.195Z,4.85
2019-06-26T07:11:09.247Z,4.55
2019-06-26T07:13:40.257Z,4.83
2019-06-26T07:16:10.889Z,3.20
2019-06-26T07:18:41.493Z,4.92
2019-06-26T07:21:12.070Z,2.87
2019-06-26T07:23:42.947Z,3.08
2019-06-26T07:26:13.822Z,5.70
2019-06-26T07:28:44.968Z,5.35
2019-06-26T07:31:15.515Z,4.87
2019-06-26T07:33:46.308Z,5.60
2019-06-26T07:36:16.877Z,5.62
2019-06-26T07:38:48.562Z,2.60
2019-06-26T07:41:19.260Z,5.50
2019-06-26T07:43:50.025Z,3.27
2019-06-26T07:46:20.935Z,4.03
2019-06-26T07:48:51.709Z,5.45
2019-06-26T07:51:22.512Z,2.67
2019-06-26T07:53:53.884Z,1.45
2019-06-26T07:56:24.914Z,5.17
2019-06-26T07:58:56.335Z,3.05
2019-06-26T08:01:27.310Z,1.15
2019-06-26T08:03:58.305Z,1.77
2019-06-26T08:06:29.494Z,2.42
2019-06-26T08:09:00.448Z,4.55
2019-06-26T08:11:31.514Z,1.10
2019-06-26T08:14:02.184Z,1.92
2019-06-26T08:16:34.447Z,1.77
2019-06-26T08:19:05.107Z,1.47
2019-06-26T08:21:36.752Z,2.98
2019-06-26T08:24:10.805Z,2.72
2019-06-26T08:26:42.172Z,5.08
2019-06-26T08:29:13.196Z,2.27
2019-06-26T08:31:44.198Z,3.67
2019-06-26T08:34:15.770Z,2.55
2019-06-26T08:36:46.632Z,2.27
2019-06-26T08:39:17.383Z,3.22
2019-06-26T08:41:48.819Z,6.58
2019-06-26T08:44:19.453Z,3.40
2019-06-26T08:46:50.308Z,5.15
2019-06-26T08:49:25.944Z,1.87
2019-06-26T08:54:25.985Z,3.05
2019-06-26T08:56:56.871Z,2.83
2019-06-26T08:59:28.186Z,2.62
2019-06-26T09:01:58.727Z,3.80
2019-06-26T09:04:29.224Z,4.70
2019-06-26T09:07:00.402Z,1.80
2019-06-26T09:09:31.196Z,1.72
2019-06-26T09:12:02.615Z,2.12
2019-06-26T09:14:34.446Z,4.92
2019-06-26T09:17:05.797Z,2.50
2019-06-26T09:19:36.645Z,2.45
2019-06-26T09:22:08.793Z,5.42
2019-06-26T09:24:40.010Z,2.55
2019-06-26T09:27:14.685Z,4.45
2019-06-26T09:29:44.125Z,2.90
2019-06-26T09:32:15.199Z,1.30
2019-06-26T09:34:46.414Z,2.95
2019-06-26T09:37:17.893Z,2.35
2019-06-26T09:39:49.437Z,23.47
2019-06-26T09:42:20.306Z,10.40
2019-06-26T09:44:51.895Z,5.92
2019-06-26T09:47:25.384Z,11.83
2019-06-26T09:49:56.257Z,3.08
2019-06-26T09:52:27.421Z,2.75
2019-06-26T09:54:59.943Z,6.45
2019-06-26T09:57:30.715Z,5.45
2019-06-26T10:00:02.023Z,2.83
2019-06-26T10:02:33.212Z,2.33
2019-06-26T10:05:04.126Z,3.95
2019-06-26T10:07:35.629Z,4.80
2019-06-26T10:10:07.947Z,4.35
2019-06-26T10:12:39.459Z,2.45
2019-06-26T10:15:10.545Z,5.70
2019-06-26T10:17:41.082Z,2.92
2019-06-26T10:20:11.801Z,3.35
2019-06-26T10:22:42.701Z,2.42
2019-06-26T10:25:13.906Z,2.02
2019-06-26T10:27:45.220Z,4.55
2019-06-26T10:30:16.149Z,4.45
2019-06-26T10:32:47.538Z,3.33
2019-06-26T10:35:18.292Z,2.35
2019-06-26T10:37:49.038Z,3.95
2019-06-26T10:40:19.849Z,14.35
2019-06-26T10:42:50.415Z,8.55
2019-06-26T10:45:24.280Z,2.80
2019-06-26T10:50:24.367Z,1.30
2019-06-26T10:52:55.019Z,3.22
2019-06-26T10:55:25.925Z,1.10
2019-06-26T10:57:56.690Z,1.65
2019-06-26T11:00:30.565Z,2.72
2019-06-26T11:05:30.861Z,2.33
2019-06-26T11:08:02.294Z,2.17
2019-06-26T11:10:33.342Z,0.95
2019-06-26T11:13:03.834Z,4.47
2019-06-26T11:15:35.099Z,3.08
2019-06-26T11:18:06.067Z,4.08
2019-06-26T11:20:36.680Z,8.13
2019-06-26T11:23:07.454Z,4.47
2019-06-26T11:25:38.955Z,3.90
2019-06-26T11:28:09.661Z,5.53
2019-06-26T11:30:40.545Z,5.30
2019-06-26T11:33:11.509Z,4.10
2019-06-26T11:35:42.744Z,8.83
2019-06-26T11:38:13.820Z,6.78
2019-06-26T11:40:44.900Z,6.87
2019-06-26T11:43:15.560Z,7.40
2019-06-26T11:45:46.669Z,4.83
2019-06-26T11:48:17.474Z,5.05
2019-06-26T11:50:48.471Z,7.53
2019-06-26T11:53:19.376Z,6.10
2019-06-26T11:55:50.329Z,5.37
2019-06-26T11:58:21.555Z,3.62
2019-06-26T12:00:52.734Z,3.60
2019-06-26T12:03:24.050Z,4.72
2019-06-26T12:06:10.519Z,3.52
2019-06-26T12:08:27.263Z,8.08
2019-06-26T12:10:58.480Z,6.70
2019-06-26T12:13:29.026Z,11.22
2019-06-26T12:16:01.007Z,10.03
2019-06-26T12:18:32.194Z,6.70
2019-06-26T12:21:03.271Z,6.15
2019-06-26T12:23:34.279Z,8.63
2019-06-26T12:26:04.955Z,14.63
2019-06-26T12:28:36.044Z,16.37
2019-06-26T12:31:07.389Z,17.42
2019-06-26T12:33:39.258Z,11.33
2019-06-26T12:36:10.320Z,11.68
2019-06-26T12:38:41.550Z,13.83
2019-06-26T12:41:12.794Z,11.33
2019-06-26T12:43:43.987Z,11.75
2019-06-26T12:46:18.049Z,12.95
2019-06-26T12:48:47.337Z,7.92
2019-06-26T12:51:18.753Z,10.15
2019-06-26T12:53:50.108Z,6.90
2019-06-26T12:56:21.227Z,9.95
2019-06-26T12:58:52.025Z,4.35
2019-06-26T13:01:25.114Z,9.08
2019-06-26T13:03:55.216Z,7.30
2019-06-26T13:06:26.265Z,5.12
2019-06-26T13:08:57.720Z,7.33
2019-06-26T13:11:28.561Z,5.67
2019-06-26T13:14:03.011Z,5.97
2019-06-26T13:16:31.953Z,5.47
2019-06-26T13:19:02.778Z,8.55
2019-06-26T13:21:33.776Z,6.95
2019-06-26T13:24:04.830Z,6.55
2019-06-26T13:26:35.474Z,18.82
2019-06-26T13:29:09.667Z,6.97
2019-06-26T13:31:38.140Z,7.65
2019-06-26T13:34:08.769Z,7.33
2019-06-26T13:36:39.811Z,5.95
2019-06-26T13:39:11.165Z,5.83
2019-06-26T13:41:41.765Z,7.03
2019-06-26T13:44:12.669Z,9.15
2019-06-26T13:46:44.662Z,6.28
2019-06-26T13:49:16.912Z,9.23
2019-06-26T13:51:48.151Z,5.12
2019-06-26T13:54:19.422Z,4.70
2019-06-26T13:56:50.662Z,4.80
2019-06-26T13:59:21.914Z,8.48
2019-06-26T14:01:53.140Z,5.35
2019-06-26T14:04:24.061Z,7.60
2019-06-26T14:06:54.891Z,6.85
2019-06-26T14:09:26.620Z,6.58
2019-06-26T14:11:57.331Z,10.10
2019-06-26T14:14:41.018Z,5.55
2019-06-26T14:17:00.606Z,5.75
2019-06-26T14:19:31.767Z,10.80
2019-06-26T14:22:02.468Z,7.42
2019-06-26T14:24:33.118Z,8.58
2019-06-26T14:27:05.361Z,11.53
2019-06-26T14:29:36.742Z,7.25
2019-06-26T14:32:07.851Z,7.80
2019-06-26T14:34:39.056Z,4.85
2019-06-26T14:37:13.026Z,5.37
2019-06-26T14:39:44.149Z,8.75
2019-06-26T14:42:14.798Z,5.40
2019-06-26T14:44:45.555Z,5.60
2019-06-26T14:47:16.987Z,3.85
2019-06-26T14:49:47.982Z,5.70
2019-06-26T14:52:18.748Z,5.72
2019-06-26T14:54:49.784Z,10.25
2019-06-26T14:57:20.951Z,4.78
2019-06-26T14:59:52.093Z,4.70
2019-06-26T15:02:23.182Z,8.28
2019-06-26T15:04:54.605Z,4.83
2019-06-26T15:07:25.938Z,6.10
2019-06-26T15:09:56.737Z,3.72
2019-06-26T15:12:28.373Z,4.53
2019-06-26T15:14:59.035Z,4.47
2019-06-26T15:17:30.470Z,6.00
2019-06-26T15:20:01.758Z,5.15
2019-06-26T15:22:32.494Z,6.70
2019-06-26T15:25:03.247Z,4.45
2019-06-26T15:27:35.590Z,5.62
2019-06-26T15:30:08.410Z,5.37
2019-06-26T15:32:39.558Z,3.33
2019-06-26T15:35:10.354Z,8.50
2019-06-26T15:37:44.557Z,6.58
2019-06-26T15:40:14.710Z,4.65
2019-06-26T15:42:48.860Z,3.30
2019-06-26T15:45:20.700Z,5.65
2019-06-26T15:47:49.791Z,3.20
2019-06-26T15:50:20.578Z,3.17
2019-06-26T15:52:51.314Z,5.95
2019-06-26T15:55:22.112Z,13.28
2019-06-26T15:57:53.134Z,3.52
2019-06-26T16:00:24.712Z,6.65
2019-06-26T16:02:55.810Z,4.40
2019-06-26T16:05:26.968Z,6.72
2019-06-26T16:07:57.835Z,4.22
2019-06-26T16:10:29.440Z,4.87
2019-06-26T16:13:00.442Z,5.03
2019-06-26T16:15:31.483Z,4.37
2019-06-26T16:18:04.336Z,2.15
2019-06-26T16:20:35.462Z,4.50
2019-06-26T16:23:06.475Z,3.15
2019-06-26T16:25:37.410Z,2.98
2019-06-26T16:28:08.823Z,2.45
2019-06-26T16:30:39.830Z,3.50
2019-06-26T16:33:10.039Z,3.30
2019-06-26T16:35:40.794Z,7.60
2019-06-26T16:38:11.276Z,4.80
2019-06-26T16:40:41.589Z,2.58
2019-06-26T16:43:12.015Z,3.50
2019-06-26T16:45:42.121Z,2.83
2019-06-26T16:48:12.270Z,3.40
2019-06-26T16:50:42.702Z,4.17
2019-06-26T16:53:12.717Z,4.15
2019-06-26T16:55:42.727Z,3.22
2019-06-26T16:58:12.872Z,3.42
2019-06-26T17:00:43.743Z,2.17
2019-06-26T17:03:14.664Z,3.70
2019-06-26T17:05:44.999Z,2.40
2019-06-26T17:08:15.473Z,2.62
2019-06-26T17:10:46.622Z,7.00
2019-06-26T17:13:18.243Z,9.48
2019-06-26T17:15:49.262Z,3.10
2019-06-26T17:18:19.797Z,5.40
2019-06-26T17:20:51.163Z,3.90
2019-06-26T17:23:22.088Z,5.20
2019-06-26T17:25:52.824Z,3.20
2019-06-26T17:28:23.946Z,1.65
2019-06-26T17:30:55.088Z,1.65
2019-06-26T17:33:25.807Z,3.35
2019-06-26T17:35:56.708Z,4.78
2019-06-26T17:38:27.199Z,1.75
2019-06-26T17:40:59.520Z,1.60
2019-06-26T17:43:29.955Z,2.08
2019-06-26T17:46:00.925Z,1.00
2019-06-26T17:48:31.682Z,2.95
2019-06-26T17:51:02.600Z,5.17
2019-06-26T17:53:33.625Z,1.47
2019-06-26T17:56:04.681Z,1.65
2019-06-26T17:58:35.732Z,1.32
2019-06-26T18:01:07.123Z,1.12
2019-06-26T18:03:38.137Z,1.40
2019-06-26T18:06:09.111Z,1.07
2019-06-26T18:08:40.182Z,3.62
2019-06-26T18:11:11.200Z,3.80
2019-06-26T18:13:41.854Z,2.75
2019-06-26T18:16:14.311Z,2.85
2019-06-26T18:18:44.917Z,3.05
2019-06-26T18:21:16.238Z,3.60
2019-06-26T18:23:47.279Z,2.52
2019-06-26T18:26:17.656Z,2.80
2019-06-26T18:28:47.971Z,5.90
2019-06-26T18:31:18.938Z,3.60
2019-06-26T18:33:49.648Z,3.98
2019-06-26T18:36:20.326Z,2.85
2019-06-26T18:38:51.215Z,6.97
2019-06-26T18:41:21.837Z,4.30
2019-06-26T18:43:52.695Z,3.05
2019-06-26T18:46:24.939Z,3.22
2019-06-26T18:48:55.245Z,2.55
2019-06-26T18:51:26.336Z,3.75
2019-06-26T18:54:00.838Z,1.30
2019-06-26T18:56:29.118Z,1.00
2019-06-26T18:59:00.269Z,1.37
2019-06-26T19:01:31.141Z,1.98
2019-06-26T19:04:02.960Z,2.25
2019-06-26T19:06:33.831Z,1.52
2019-06-26T19:09:06.018Z,0.98
2019-06-26T19:11:36.337Z,1.22
2019-06-26T19:14:07.420Z,3.15
2019-06-26T19:16:38.413Z,1.17
2019-06-26T19:19:12.187Z,3.15
2019-06-26T19:21:41.587Z,3.33
2019-06-26T19:24:12.621Z,4.53
2019-06-26T19:26:43.255Z,3.30
2019-06-26T19:29:14.171Z,2.33
2019-06-26T19:31:45.018Z,1.35
2019-06-26T19:34:17.340Z,2.85
2019-06-26T19:36:50.518Z,2.75
2019-06-26T19:39:21.022Z,2.72
2019-06-26T19:41:52.065Z,1.22
2019-06-26T19:44:23.208Z,1.65
2019-06-26T19:46:54.218Z,1.65
2019-06-26T19:49:24.842Z,1.17
2019-06-26T19:51:55.258Z,4.28
2019-06-26T19:54:31.066Z,4.10
2019-06-26T19:56:59.013Z,3.10
2019-06-26T19:59:30.030Z,2.15
2019-06-26T20:02:00.639Z,2.45
2019-06-26T20:04:31.432Z,3.08
2019-06-26T20:07:02.433Z,1.25
2019-06-26T20:09:33.187Z,4.72
2019-06-26T20:12:07.062Z,2.02
2019-06-26T20:14:38.015Z,1.55
2019-06-26T20:17:08.742Z,2.40
2019-06-26T20:19:39.625Z,1.52
2019-06-26T20:22:10.788Z,1.92
2019-06-26T20:24:44.434Z,0.78
2019-06-26T20:27:14.790Z,1.32
2019-06-26T20:29:45.207Z,2.65
2019-06-26T20:32:16.537Z,0.60
2019-06-26T20:34:49.070Z,1.05
2019-06-26T20:37:19.954Z,0.70
2019-06-26T20:39:51.078Z,5.30
2019-06-26T20:42:21.964Z,4.12
2019-06-26T20:44:52.496Z,2.20
2019-06-26T20:47:23.035Z,3.20
2019-06-26T20:49:53.809Z,0.60
2019-06-26T20:52:24.701Z,0.60
2019-06-26T20:55:01.200Z,1.70
2019-06-26T20:57:27.884Z,1.60
2019-06-26T20:59:59.384Z,1.15
2019-06-26T21:02:29.945Z,1.52
2019-06-26T21:05:01.097Z,0.95
2019-06-26T21:07:32.172Z,0.55
2019-06-26T21:10:03.132Z,2.92
2019-06-26T21:12:34.336Z,5.00
2019-06-26T21:15:06.468Z,3.02
2019-06-26T21:17:37.730Z,2.17
2019-06-26T21:20:08.665Z,0.75
2019-06-26T21:22:40.640Z,1.02
2019-06-26T21:25:19.005Z,0.40
2019-06-26T21:27:43.871Z,1.75
2019-06-26T21:30:14.761Z,1.75
2019-06-26T21:32:45.631Z,2.45
2019-06-26T21:35:16.978Z,2.67
2019-06-26T21:37:47.945Z,0.65
2019-06-26T21:40:18.997Z,1.87
2019-06-26T21:42:49.829Z,2.15
2019-06-26T21:45:23.086Z,1.67
2019-06-26T21:47:54.022Z,2.72
2019-06-26T21:50:27.933Z,1.07
2019-06-26T21:52:57.488Z,1.37
2019-06-26T21:55:34.260Z,0.68
2019-06-26T21:58:00.351Z,1.80
2019-06-26T22:00:32.011Z,0.75
2019-06-26T22:03:03.076Z,0.93
2019-06-26T22:05:34.179Z,1.30
2019-06-26T22:08:05.285Z,2.52
2019-06-26T22:10:36.368Z,0.55
2019-06-26T22:13:07.103Z,2.17
2019-06-26T22:15:38.070Z,3.25
2019-06-26T22:18:09.118Z,1.15
2019-06-26T22:20:40.050Z,2.33
2019-06-26T22:23:11.671Z,2.55
2019-06-26T22:25:50.739Z,2.58
2019-06-26T22:28:14.644Z,2.42
2019-06-26T22:30:45.904Z,1.62
2019-06-26T22:33:16.703Z,2.08
2019-06-26T22:35:49.596Z,1.87
2019-06-26T22:38:20.466Z,2.25
2019-06-26T22:40:50.913Z,0.50
2019-06-26T22:43:21.486Z,0.60
2019-06-26T22:45:52.245Z,1.55
2019-06-26T22:48:23.046Z,2.42
2019-06-26T22:50:54.464Z,6.78
2019-06-26T22:53:25.313Z,3.25
2019-06-26T22:56:06.957Z,3.77
2019-06-26T22:58:28.281Z,3.72
2019-06-26T23:00:59.273Z,4.05
2019-06-26T23:03:30.530Z,3.72
2019-06-26T23:06:01.544Z,3.45
2019-06-26T23:08:32.629Z,2.98
2019-06-26T23:11:03.600Z,1.92
2019-06-26T23:13:34.737Z,1.92
2019-06-26T23:16:05.905Z,1.95
2019-06-26T23:18:36.527Z,2.40
2019-06-26T23:21:07.435Z,5.20
2019-06-26T23:23:38.384Z,0.90
2019-06-26T23:26:23.000Z,1.98
2019-06-26T23:28:41.434Z,5.55
2019-06-26T23:31:13.707Z,1.62
2019-06-26T23:33:44.730Z,1.10
2019-06-26T23:36:17.397Z,4.08
2019-06-26T23:38:48.605Z,0.75
2019-06-26T23:41:19.564Z,3.02
2019-06-26T23:43:50.683Z,3.08
2019-06-26T23:46:22.146Z,1.32
2019-06-26T23:48:53.306Z,1.07
2019-06-26T23:51:24.332Z,1.85
2019-06-26T23:53:55.484Z,1.90
2019-06-26T23:56:39.598Z,1.57
2019-06-26T23:58:58.434Z,4.85
